Time;durP1;ratioP1;P1;durP2;ratioP2;P2;SDS_P1;SDS_P2;PMS_P1;PMS_P2;Temp;Humidity;BMP_temperature;BMP_pressure;BME280_temperature;BME280_humidity;BME280_pressure;Samples;Min_cycle;Max_cycle;Signal;HPM_P1;HPM_P2
2021/09/17 00:00:08;;;;;;;6.70;3.90;;;;;;;;;;5032741;28;20413;-80
2021/09/17 00:02:34;;;;;;;7.63;3.93;;;;;;;;;;5032363;28;20433;-81
2021/09/17 00:05:00;;;;;;;8.97;3.03;;;;;;;;;;5032813;28;20886;-78
2021/09/17 00:07:26;;;;;;;6.57;3.97;;;;;;;;;;5015172;28;20451;-78
2021/09/17 00:09:52;;;;;;;5.13;3.47;;;;;;;;;;5032938;28;20441;-77
2021/09/17 00:12:19;;;;;;;6.23;3.03;;;;;;;;;;5032270;28;20431;-80
2021/09/17 00:14:45;;;;;;;5.97;4.03;;;;;;;;;;5032712;28;20773;-79
2021/09/17 00:17:12;;;;;;;4.20;3.27;;;;;;;;;;5032691;28;20405;-79
2021/09/17 00:19:38;;;;;;;7.53;3.90;;;;;;;;;;5032532;28;20464;-79
2021/09/17 00:22:05;;;;;;;7.90;3.70;;;;;;;;;;5032294;28;20463;-79
2021/09/17 00:24:32;;;;;;;7.70;4.37;;;;;;;;;;5032508;28;20409;-79
2021/09/17 00:26:58;;;;;;;5.70;4.07;;;;;;;;;;5032570;28;20409;-80
2021/09/17 00:29:24;;;;;;;5.63;4.20;;;;;;;;;;5032389;28;20408;-79
2021/09/17 00:31:50;;;;;;;8.57;4.50;;;;;;;;;;5014193;28;20439;-79
2021/09/17 00:34:16;;;;;;;8.03;3.90;;;;;;;;;;5032719;28;20467;-79
2021/09/17 00:36:42;;;;;;;10.00;4.57;;;;;;;;;;5032615;28;20449;-80
2021/09/17 00:39:12;;;;;;;8.90;4.50;;;;;;;;;;5032470;28;20468;-79
2021/09/17 00:41:39;;;;;;;5.10;4.13;;;;;;;;;;5016504;28;20467;-79
2021/09/17 00:44:04;;;;;;;9.43;5.20;;;;;;;;;;5018469;28;20421;-79
2021/09/17 00:46:30;;;;;;;6.77;5.13;;;;;;;;;;5036079;28;20439;-78
2021/09/17 00:48:56;;;;;;;6.27;3.90;;;;;;;;;;5035963;28;20428;-78
2021/09/17 00:51:22;;;;;;;7.22;4.35;;;;;;;;;;5035491;28;20506;-78
2021/09/17 00:53:49;;;;;;;8.33;4.80;;;;;;;;;;5035612;28;20598;-77
2021/09/17 00:56:15;;;;;;;7.00;4.50;;;;;;;;;;5018096;28;20497;-78
2021/09/17 00:58:41;;;;;;;7.10;5.17;;;;;;;;;;5035560;28;20827;-78
2021/09/17 01:01:07;;;;;;;5.30;4.20;;;;;;;;;;5035214;28;20401;-79
2021/09/17 01:03:33;;;;;;;7.03;4.70;;;;;;;;;;5018198;28;20441;-78
2021/09/17 01:06:00;;;;;;;4.80;4.33;;;;;;;;;;5035293;28;20488;-79
2021/09/17 01:08:26;;;;;;;6.50;4.23;;;;;;;;;;5035522;28;20409;-80
2021/09/17 01:10:52;;;;;;;11.10;5.33;;;;;;;;;;5035134;28;20432;-80
2021/09/17 01:13:19;;;;;;;6.90;5.00;;;;;;;;;;5035788;28;20413;-80
2021/09/17 01:15:45;;;;;;;6.77;4.83;;;;;;;;;;5017469;28;20807;-80
2021/09/17 01:18:11;;;;;;;6.23;5.10;;;;;;;;;;5035523;28;20542;-80
2021/09/17 01:20:37;;;;;;;6.40;5.10;;;;;;;;;;5035557;28;20844;-77
2021/09/17 01:23:03;;;;;;;6.43;5.40;;;;;;;;;;5035353;28;20475;-77
2021/09/17 01:25:29;;;;;;;7.53;4.60;;;;;;;;;;5017813;28;20412;-78
2021/09/17 01:27:55;;;;;;;7.90;5.00;;;;;;;;;;5035258;28;20405;-77
2021/09/17 01:30:22;;;;;;;6.63;4.93;;;;;;;;;;5017458;28;20421;-77
2021/09/17 01:32:48;;;;;;;6.33;5.47;;;;;;;;;;5017035;28;20460;-79
2021/09/17 01:35:15;;;;;;;8.43;4.30;;;;;;;;;;5035082;28;20411;-76
2021/09/17 01:37:41;;;;;;;8.43;5.13;;;;;;;;;;5035003;28;20442;-80
2021/09/17 01:40:08;;;;;;;10.80;5.90;;;;;;;;;;5017372;28;20475;-79
2021/09/17 01:42:34;;;;;;;8.40;5.60;;;;;;;;;;5034701;28;21005;-79
2021/09/17 01:45:00;;;;;;;6.03;5.43;;;;;;;;;;5017173;28;20568;-78
2021/09/17 01:47:26;;;;;;;7.50;5.40;;;;;;;;;;5035002;28;20579;-78
2021/09/17 01:49:52;;;;;;;7.00;5.10;;;;;;;;;;5034831;28;20417;-78
2021/09/17 01:52:18;;;;;;;7.10;6.10;;;;;;;;;;5015500;28;20453;-78
2021/09/17 01:54:44;;;;;;;8.20;6.37;;;;;;;;;;5034211;28;20500;-77
2021/09/17 01:57:10;;;;;;;10.17;5.77;;;;;;;;;;5034701;28;20509;-77
2021/09/17 01:59:36;;;;;;;8.90;7.10;;;;;;;;;;5016740;28;20571;-78
2021/09/17 02:02:02;;;;;;;9.97;6.37;;;;;;;;;;5034064;28;20432;-78
2021/09/17 02:04:28;;;;;;;9.17;6.77;;;;;;;;;;5034296;28;20413;-79
2021/09/17 02:06:54;;;;;;;8.93;5.80;;;;;;;;;;5034438;28;20488;-77
2021/09/17 02:09:20;;;;;;;10.63;6.40;;;;;;;;;;5034495;28;20471;-79
2021/09/17 02:11:46;;;;;;;14.80;7.50;;;;;;;;;;5033955;28;20428;-78
2021/09/17 02:14:12;;;;;;;10.40;7.37;;;;;;;;;;5034659;28;20436;-79
2021/09/17 02:16:39;;;;;;;9.40;7.40;;;;;;;;;;5034332;28;20470;-79
2021/09/17 02:19:05;;;;;;;10.00;8.67;;;;;;;;;;5016393;28;20465;-79
2021/09/17 02:21:31;;;;;;;17.30;8.83;;;;;;;;;;5033783;28;20429;-78
2021/09/17 02:23:57;;;;;;;16.30;8.37;;;;;;;;;;5034092;28;20412;-77
2021/09/17 02:26:23;;;;;;;9.40;8.50;;;;;;;;;;5016186;28;20783;-79
2021/09/17 02:28:49;;;;;;;20.13;8.80;;;;;;;;;;5016123;28;20444;-79
2021/09/17 02:31:15;;;;;;;10.40;8.47;;;;;;;;;;5033717;28;20437;-79
2021/09/17 02:33:41;;;;;;;10.13;8.40;;;;;;;;;;5034088;28;20409;-80
2021/09/17 02:36:07;;;;;;;11.80;7.70;;;;;;;;;;5033991;28;20423;-77
2021/09/17 02:38:33;;;;;;;8.60;7.80;;;;;;;;;;5033856;28;20540;-78
2021/09/17 02:40:59;;;;;;;9.70;8.70;;;;;;;;;;5033636;28;20421;-77
2021/09/17 02:43:26;;;;;;;10.93;8.70;;;;;;;;;;5016121;28;20503;-79
2021/09/17 02:45:52;;;;;;;13.37;8.87;;;;;;;;;;5033808;28;20416;-79
2021/09/17 02:48:17;;;;;;;15.20;8.90;;;;;;;;;;5033793;28;20427;-78
2021/09/17 02:50:44;;;;;;;8.67;7.63;;;;;;;;;;5033339;28;20782;-77
2021/09/17 02:53:10;;;;;;;15.20;8.67;;;;;;;;;;5033295;28;20452;-78
2021/09/17 02:55:36;;;;;;;12.70;9.57;;;;;;;;;;5033593;28;20409;-79
2021/09/17 02:58:05;;;;;;;10.90;8.80;;;;;;;;;;5033473;28;20790;-77
2021/09/17 03:00:31;;;;;;;10.60;8.07;;;;;;;;;;5033356;28;20479;-80
2021/09/17 03:02:57;;;;;;;13.80;7.90;;;;;;;;;;5032900;28;20428;-78
2021/09/17 03:05:23;;;;;;;12.03;9.37;;;;;;;;;;5032941;28;20405;-79
2021/09/17 03:07:49;;;;;;;10.37;8.47;;;;;;;;;;4999348;28;20421;-80
2021/09/17 03:10:15;;;;;;;11.30;8.40;;;;;;;;;;5016008;28;20412;-78
2021/09/17 03:12:41;;;;;;;12.97;9.80;;;;;;;;;;5032966;28;20505;-80
2021/09/17 03:15:08;;;;;;;12.13;9.00;;;;;;;;;;5015592;28;20413;-79
2021/09/17 03:17:34;;;;;;;10.50;9.47;;;;;;;;;;5033140;28;20405;-80
2021/09/17 03:20:00;;;;;;;11.20;8.60;;;;;;;;;;5033316;28;20460;-80
2021/09/17 03:22:26;;;;;;;9.20;8.13;;;;;;;;;;5033170;28;20811;-78
2021/09/17 03:24:52;;;;;;;11.17;10.10;;;;;;;;;;5033430;28;20412;-77
2021/09/17 03:27:18;;;;;;;12.13;10.90;;;;;;;;;;5033380;28;20405;-80
2021/09/17 03:29:44;;;;;;;16.90;12.40;;;;;;;;;;5033252;28;20576;-79
2021/09/17 03:32:10;;;;;;;17.93;12.53;;;;;;;;;;5032877;28;20987;-78
2021/09/17 03:34:36;;;;;;;17.20;13.50;;;;;;;;;;5033332;28;20412;-79
2021/09/17 03:37:03;;;;;;;15.60;13.27;;;;;;;;;;5033055;28;20416;-78
2021/09/17 03:39:29;;;;;;;15.80;13.33;;;;;;;;;;5033238;28;20475;-78
2021/09/17 03:41:55;;;;;;;16.90;13.33;;;;;;;;;;5032618;28;20431;-80
2021/09/17 03:44:21;;;;;;;17.70;13.23;;;;;;;;;;5034039;28;20408;-79
2021/09/17 03:46:47;;;;;;;14.10;12.70;;;;;;;;;;5033384;28;20416;-78
2021/09/17 03:49:13;;;;;;;14.70;13.10;;;;;;;;;;5014942;28;20409;-77
2021/09/17 03:51:39;;;;;;;16.97;15.20;;;;;;;;;;5032597;28;20816;-80
2021/09/17 03:54:05;;;;;;;14.80;13.30;;;;;;;;;;5032853;28;20448;-77
2021/09/17 03:56:31;;;;;;;17.93;16.10;;;;;;;;;;5032828;28;20964;-78
2021/09/17 03:58:58;;;;;;;17.77;15.97;;;;;;;;;;5032804;28;20526;-80
2021/09/17 04:01:24;;;;;;;15.97;14.33;;;;;;;;;;5032308;28;20429;-78
2021/09/17 04:03:49;;;;;;;17.37;13.93;;;;;;;;;;5032808;28;20511;-79
2021/09/17 04:06:15;;;;;;;17.67;12.90;;;;;;;;;;5014838;28;20508;-79
2021/09/17 04:08:41;;;;;;;14.93;13.33;;;;;;;;;;5032770;28;20490;-79
2021/09/17 04:11:07;;;;;;;17.30;13.47;;;;;;;;;;5014568;28;20421;-78
2021/09/17 04:13:33;;;;;;;17.10;13.87;;;;;;;;;;5032560;28;20432;-80
2021/09/17 04:15:59;;;;;;;16.83;13.63;;;;;;;;;;5033262;28;20413;-79
2021/09/17 04:18:25;;;;;;;17.80;15.30;;;;;;;;;;5019080;28;20804;-80
2021/09/17 04:20:51;;;;;;;16.13;14.43;;;;;;;;;;5036231;28;20409;-80
2021/09/17 04:23:17;;;;;;;14.50;13.13;;;;;;;;;;5036199;28;20413;-79
2021/09/17 04:25:43;;;;;;;15.07;13.47;;;;;;;;;;5036259;28;20882;-81
2021/09/17 04:28:10;;;;;;;15.03;13.33;;;;;;;;;;5036444;28;20448;-80
2021/09/17 04:30:36;;;;;;;18.20;14.90;;;;;;;;;;5036230;28;20401;-80
2021/09/17 04:33:02;;;;;;;17.50;15.47;;;;;;;;;;5035847;28;20503;-78
2021/09/17 04:35:28;;;;;;;14.93;13.40;;;;;;;;;;5036205;28;20401;-78
2021/09/17 04:37:58;;;;;;;15.60;13.73;;;;;;;;;;5018296;28;20447;-77
2021/09/17 04:40:24;;;;;;;21.40;14.90;;;;;;;;;;5036408;28;20413;-78
2021/09/17 04:42:52;;;;;;;17.30;15.57;;;;;;;;;;5035670;28;20433;-78
2021/09/17 04:45:18;;;;;;;18.70;15.87;;;;;;;;;;5036196;28;20784;-77
2021/09/17 04:47:45;;;;;;;19.80;16.13;;;;;;;;;;5035827;28;20409;-78
2021/09/17 04:50:11;;;;;;;17.10;15.40;;;;;;;;;;5035884;28;20404;-77
2021/09/17 04:52:37;;;;;;;20.50;16.20;;;;;;;;;;5035263;28;20601;-77
2021/09/17 04:55:04;;;;;;;19.60;15.67;;;;;;;;;;5018024;28;20919;-80
2021/09/17 04:57:30;;;;;;;16.20;14.53;;;;;;;;;;5035721;28;20786;-78
2021/09/17 04:59:56;;;;;;;24.67;16.70;;;;;;;;;;5035451;28;20915;-79
2021/09/17 05:02:22;;;;;;;18.40;16.40;;;;;;;;;;5035077;28;20522;-78
2021/09/17 05:04:48;;;;;;;20.93;15.70;;;;;;;;;;5035666;28;20483;-79
2021/09/17 05:07:14;;;;;;;19.27;16.70;;;;;;;;;;5035650;28;20460;-77
2021/09/17 05:09:40;;;;;;;19.30;15.70;;;;;;;;;;5035388;28;20424;-80
2021/09/17 05:12:06;;;;;;;23.20;17.10;;;;;;;;;;5035144;28;20429;-78
2021/09/17 05:14:33;;;;;;;24.87;17.40;;;;;;;;;;5035397;28;20425;-79
2021/09/17 05:16:59;;;;;;;23.00;16.70;;;;;;;;;;5035406;28;20498;-80
2021/09/17 05:19:25;;;;;;;23.57;16.97;;;;;;;;;;5035322;28;20460;-78
2021/09/17 05:21:55;;;;;;;23.03;17.60;;;;;;;;;;5034728;28;20428;-80
2021/09/17 05:24:21;;;;;;;24.10;18.83;;;;;;;;;;5035226;28;20445;-79
2021/09/17 05:26:47;;;;;;;18.13;15.87;;;;;;;;;;5035045;28;20401;-78
2021/09/17 05:29:13;;;;;;;21.47;15.77;;;;;;;;;;5035185;28;20761;-79
2021/09/17 05:31:39;;;;;;;17.23;15.43;;;;;;;;;;5034774;28;20477;-78
2021/09/17 05:34:05;;;;;;;25.13;18.10;;;;;;;;;;5034891;28;20416;-77
2021/09/17 05:36:31;;;;;;;18.67;16.17;;;;;;;;;;5035198;28;20750;-80
2021/09/17 05:38:57;;;;;;;20.10;16.70;;;;;;;;;;5017582;28;20469;-78
2021/09/17 05:41:23;;;;;;;20.70;15.57;;;;;;;;;;5034681;28;20448;-79
2021/09/17 05:43:50;;;;;;;17.70;14.30;;;;;;;;;;5034943;28;20769;-78
2021/09/17 05:46:17;;;;;;;23.27;17.60;;;;;;;;;;5017441;28;20405;-79
2021/09/17 05:48:43;;;;;;;21.70;18.17;;;;;;;;;;5016967;28;20429;-79
2021/09/17 05:51:09;;;;;;;26.93;19.00;;;;;;;;;;5034451;28;20475;-79
2021/09/17 05:53:35;;;;;;;19.90;16.93;;;;;;;;;;5034616;28;20952;-77
2021/09/17 05:56:01;;;;;;;22.50;18.90;;;;;;;;;;5034709;28;20409;-78
2021/09/17 05:58:31;;;;;;;27.83;17.07;;;;;;;;;;5034562;28;20474;-79
2021/09/17 06:00:58;;;;;;;18.70;16.53;;;;;;;;;;5034276;28;20428;-77
2021/09/17 06:03:24;;;;;;;22.63;17.20;;;;;;;;;;5034588;28;20409;-78
2021/09/17 06:05:50;;;;;;;17.33;15.40;;;;;;;;;;5034474;28;20508;-79
2021/09/17 06:08:16;;;;;;;21.87;16.37;;;;;;;;;;5034101;28;20508;-80
2021/09/17 06:10:42;;;;;;;20.90;17.00;;;;;;;;;;5033963;28;20494;-78
2021/09/17 06:13:08;;;;;;;22.47;16.20;;;;;;;;;;5033672;28;20448;-79
2021/09/17 06:15:34;;;;;;;20.87;15.80;;;;;;;;;;5034182;28;20427;-78
2021/09/17 06:18:00;;;;;;;20.37;16.27;;;;;;;;;;5034272;28;20444;-79
2021/09/17 06:20:26;;;;;;;22.80;18.00;;;;;;;;;;5034129;28;20499;-78
2021/09/17 06:22:55;;;;;;;23.80;17.60;;;;;;;;;;5016066;28;20468;-80
2021/09/17 06:25:22;;;;;;;25.23;18.27;;;;;;;;;;5033940;28;20781;-78
2021/09/17 06:27:49;;;;;;;27.23;17.80;;;;;;;;;;5033946;28;20509;-80
2021/09/17 06:30:16;;;;;;;21.43;17.30;;;;;;;;;;5033928;28;20782;-79
2021/09/17 06:32:42;;;;;;;24.97;15.90;;;;;;;;;;5033771;28;20440;-78
2021/09/17 06:35:08;;;;;;;23.33;16.73;;;;;;;;;;5034024;28;20866;-76
2021/09/17 06:37:34;;;;;;;19.10;16.50;;;;;;;;;;5015968;28;20421;-78
2021/09/17 06:40:00;;;;;;;19.57;17.30;;;;;;;;;;5033213;28;20835;-79
2021/09/17 06:42:26;;;;;;;19.50;17.20;;;;;;;;;;5033509;28;20834;-78
2021/09/17 06:44:52;;;;;;;20.93;17.43;;;;;;;;;;5034009;28;20409;-77
2021/09/17 06:47:18;;;;;;;20.33;18.20;;;;;;;;;;5033888;28;20418;-79
2021/09/17 06:49:44;;;;;;;20.87;18.10;;;;;;;;;;5015926;28;20413;-80
2021/09/17 06:52:10;;;;;;;20.03;17.53;;;;;;;;;;5033378;28;20425;-79
2021/09/17 06:54:36;;;;;;;19.93;17.83;;;;;;;;;;5015806;28;20425;-78
2021/09/17 06:57:02;;;;;;;20.80;16.63;;;;;;;;;;5033919;28;20425;-76
2021/09/17 06:59:28;;;;;;;19.90;17.00;;;;;;;;;;5033510;28;20476;-79
2021/09/17 07:01:54;;;;;;;22.43;19.03;;;;;;;;;;5027122;28;20475;-79
2021/09/17 07:04:20;;;;;;;21.13;18.90;;;;;;;;;;5033259;28;20417;-76
2021/09/17 07:06:46;;;;;;;29.73;19.10;;;;;;;;;;5033284;28;20409;-80
2021/09/17 07:09:12;;;;;;;18.93;17.00;;;;;;;;;;5035576;28;20836;-77
2021/09/17 07:11:38;;;;;;;22.47;18.90;;;;;;;;;;5032397;28;20433;-76
2021/09/17 07:14:04;;;;;;;20.83;17.60;;;;;;;;;;5032131;28;20491;-77
2021/09/17 07:16:30;;;;;;;21.23;17.53;;;;;;;;;;5033274;28;20417;-79
2021/09/17 07:18:56;;;;;;;21.00;17.53;;;;;;;;;;5015505;28;20468;-79
2021/09/17 07:21:23;;;;;;;19.10;15.70;;;;;;;;;;5032923;28;20435;-80
2021/09/17 07:23:49;;;;;;;25.33;18.07;;;;;;;;;;5033285;28;20413;-79
2021/09/17 07:26:15;;;;;;;21.27;19.00;;;;;;;;;;5015344;28;20413;-78
2021/09/17 07:28:41;;;;;;;20.30;15.97;;;;;;;;;;5032849;28;20417;-78
2021/09/17 07:31:07;;;;;;;22.50;17.90;;;;;;;;;;5032621;28;20762;-79
2021/09/17 07:33:33;;;;;;;19.10;17.07;;;;;;;;;;5033291;28;20830;-79
2021/09/17 07:35:59;;;;;;;21.73;15.87;;;;;;;;;;5015465;28;20417;-77
2021/09/17 07:38:25;;;;;;;18.47;16.60;;;;;;;;;;5015398;28;20461;-76
2021/09/17 07:40:51;;;;;;;19.87;16.17;;;;;;;;;;5032629;28;20480;-79
2021/09/17 07:43:18;;;;;;;19.33;15.57;;;;;;;;;;5015415;28;20511;-77
2021/09/17 07:45:43;;;;;;;18.57;15.40;;;;;;;;;;5033035;28;20503;-80
2021/09/17 07:48:09;;;;;;;18.93;16.20;;;;;;;;;;5033069;28;20487;-78
2021/09/17 07:50:35;;;;;;;17.43;15.63;;;;;;;;;;5034381;28;20424;-77
2021/09/17 07:53:01;;;;;;;19.03;15.30;;;;;;;;;;5036478;28;20464;-77
2021/09/17 07:55:32;;;;;;;17.97;14.70;;;;;;;;;;5037028;28;20413;-79
2021/09/17 07:57:58;;;;;;;16.17;13.80;;;;;;;;;;5036997;28;20409;-79
2021/09/17 08:00:24;;;;;;;16.00;14.30;;;;;;;;;;5036778;28;20413;-78
2021/09/17 08:02:51;;;;;;;20.57;15.60;;;;;;;;;;5018553;28;20440;-78
2021/09/17 08:05:17;;;;;;;19.80;14.97;;;;;;;;;;5036667;28;20444;-76
2021/09/17 08:07:44;;;;;;;17.60;14.33;;;;;;;;;;5036834;28;20921;-77
2021/09/17 08:10:10;;;;;;;17.60;14.33;;;;;;;;;;5036766;28;20466;-77
2021/09/17 08:12:36;;;;;;;17.97;13.67;;;;;;;;;;5018412;28;20433;-77
2021/09/17 08:15:03;;;;;;;21.07;13.83;;;;;;;;;;5036588;28;20429;-79
2021/09/17 08:17:29;;;;;;;19.73;14.80;;;;;;;;;;5036536;28;20444;-77
2021/09/17 08:19:55;;;;;;;18.03;12.93;;;;;;;;;;5036623;28;20555;-77
2021/09/17 08:22:21;;;;;;;20.57;13.20;;;;;;;;;;5036137;28;20451;-76
2021/09/17 08:24:47;;;;;;;18.13;13.97;;;;;;;;;;5036666;28;20409;-79
2021/09/17 08:27:13;;;;;;;15.50;13.20;;;;;;;;;;5018735;28;20422;-77
2021/09/17 08:29:39;;;;;;;15.10;12.40;;;;;;;;;;5036348;28;20430;-79
2021/09/17 08:32:05;;;;;;;14.97;12.10;;;;;;;;;;5036163;28;20440;-77
2021/09/17 08:34:31;;;;;;;17.33;12.83;;;;;;;;;;5018598;28;20419;-76
2021/09/17 08:36:57;;;;;;;18.10;13.73;;;;;;;;;;5018493;28;20519;-75
2021/09/17 08:39:23;;;;;;;17.60;11.93;;;;;;;;;;5036056;28;20464;-77
2021/09/17 08:41:49;;;;;;;17.30;12.87;;;;;;;;;;5035830;28;20512;-78
2021/09/17 08:44:16;;;;;;;16.93;11.47;;;;;;;;;;5036085;28;20405;-76
2021/09/17 08:46:42;;;;;;;14.57;12.27;;;;;;;;;;5036183;28;20440;-78
2021/09/17 08:49:09;;;;;;;14.13;12.73;;;;;;;;;;5036205;28;20422;-79
2021/09/17 08:51:36;;;;;;;15.17;13.57;;;;;;;;;;5035504;28;20432;-79
2021/09/17 08:54:04;;;;;;;14.53;12.80;;;;;;;;;;5035870;28;20988;-77
2021/09/17 08:56:30;;;;;;;13.53;12.13;;;;;;;;;;5036072;28;20420;-77
2021/09/17 08:58:56;;;;;;;15.43;12.73;;;;;;;;;;5001928;28;20439;-79
2021/09/17 09:01:26;;;;;;;17.53;12.73;;;;;;;;;;5035212;28;20404;-78
2021/09/17 09:03:53;;;;;;;15.80;12.37;;;;;;;;;;5035449;28;20897;-76
2021/09/17 09:06:20;;;;;;;15.23;12.33;;;;;;;;;;5035752;28;20521;-77
2021/09/17 09:08:46;;;;;;;20.77;11.73;;;;;;;;;;5035653;28;20428;-77
2021/09/17 09:11:20;;;;;;;16.20;12.43;;;;;;;;;;5035237;28;20407;-77
2021/09/17 09:14:03;;;;;;;16.00;12.90;;;;;;;;;;5035373;28;20420;-78
2021/09/17 09:16:29;;;;;;;13.77;12.20;;;;;;;;;;5035331;28;20393;-77
2021/09/17 09:18:56;;;;;;;15.97;13.20;;;;;;;;;;5035335;28;20469;-77
2021/09/17 09:21:26;;;;;;;16.43;12.13;;;;;;;;;;5034995;28;20407;-77
2021/09/17 09:24:12;;;;;;;23.20;12.90;;;;;;;;;;5035350;28;20387;-79
2021/09/17 09:26:38;;;;;;;18.03;12.50;;;;;;;;;;5024866;28;20399;-78
2021/09/17 09:29:05;;;;;;;12.97;11.67;;;;;;;;;;5035303;28;20439;-78
2021/09/17 09:31:41;;;;;;;13.30;10.80;;;;;;;;;;5034868;28;20494;-79
2021/09/17 09:34:07;;;;;;;14.00;11.37;;;;;;;;;;5035243;28;20415;-78
2021/09/17 09:36:35;;;;;;;12.83;11.57;;;;;;;;;;5035193;28;20420;-76
2021/09/17 09:39:02;;;;;;;16.20;10.23;;;;;;;;;;5017340;28;20984;-77
2021/09/17 09:41:29;;;;;;;13.40;11.23;;;;;;;;;;5016699;28;20506;-76
2021/09/17 09:43:56;;;;;;;11.70;10.47;;;;;;;;;;5016977;28;20445;-78
2021/09/17 09:46:26;;;;;;;11.80;10.23;;;;;;;;;;5035114;28;20394;-78
2021/09/17 09:49:08;;;;;;;12.07;10.13;;;;;;;;;;5035009;28;20413;-79
2021/09/17 09:51:52;;;;;;;11.73;10.53;;;;;;;;;;5034487;28;20429;-78
2021/09/17 09:54:19;;;;;;;11.27;9.83;;;;;;;;;;5034663;28;20433;-77
2021/09/17 09:56:45;;;;;;;11.67;9.97;;;;;;;;;;5034706;28;20391;-79
2021/09/17 09:59:11;;;;;;;10.50;9.47;;;;;;;;;;5034483;28;20439;-79
2021/09/17 10:01:38;;;;;;;17.10;10.50;;;;;;;;;;5034111;28;20425;-77
2021/09/17 10:04:05;;;;;;;13.37;11.30;;;;;;;;;;5034568;28;20412;-77
2021/09/17 10:06:32;;;;;;;10.23;9.10;;;;;;;;;;5016672;28;20426;-77
2021/09/17 10:08:58;;;;;;;12.53;10.40;;;;;;;;;;5034489;28;20755;-76
2021/09/17 10:11:25;;;;;;;20.57;12.37;;;;;;;;;;5016336;28;20415;-78
2021/09/17 10:13:54;;;;;;;11.10;10.00;;;;;;;;;;5033351;28;20396;-76
2021/09/17 10:16:22;;;;;;;14.03;11.90;;;;;;;;;;5034362;28;20398;-78
2021/09/17 10:18:48;;;;;;;14.03;11.83;;;;;;;;;;5034092;28;20553;-77
2021/09/17 10:21:34;;;;;;;12.90;11.60;;;;;;;;;;5033973;28;20419;-76
2021/09/17 10:24:20;;;;;;;11.20;10.10;;;;;;;;;;5034261;28;20446;-78
2021/09/17 10:26:55;;;;;;;12.00;10.80;;;;;;;;;;5016328;28;20546;-77
2021/09/17 10:29:41;;;;;;;14.63;11.67;;;;;;;;;;5034064;28;20483;-75
2021/09/17 10:32:27;;;;;;;16.43;12.40;;;;;;;;;;5015338;28;20408;-78
2021/09/17 10:35:12;;;;;;;12.60;10.70;;;;;;;;;;5070791;28;20919;-78
2021/09/17 10:37:56;;;;;;;14.33;12.60;;;;;;;;;;5070453;28;20392;-76
2021/09/17 10:40:42;;;;;;;13.93;12.53;;;;;;;;;;5070256;28;20897;-76
2021/09/17 10:43:10;;;;;;;14.00;12.30;;;;;;;;;;5070335;28;20476;-77
2021/09/17 10:45:40;;;;;;;15.93;13.40;;;;;;;;;;5070497;28;20391;-78
2021/09/17 10:48:07;;;;;;;15.20;13.70;;;;;;;;;;5070502;28;20708;-78
2021/09/17 10:50:40;;;;;;;20.30;14.13;;;;;;;;;;5070062;28;20784;-79
2021/09/17 10:53:06;;;;;;;17.40;15.50;;;;;;;;;;5070242;28;20528;-77
2021/09/17 10:55:44;;;;;;;22.40;14.80;;;;;;;;;;5070279;28;20448;-77
2021/09/17 10:58:21;;;;;;;16.90;13.30;;;;;;;;;;5070126;28;20386;-75
2021/09/17 11:00:53;;;;;;;16.93;15.00;;;;;;;;;;5069798;28;20381;-76
2021/09/17 11:03:44;;;;;;;19.87;15.30;;;;;;;;;;5070079;28;20386;-76
2021/09/17 11:06:19;;;;;;;16.67;14.83;;;;;;;;;;5049933;28;20428;-76
2021/09/17 11:08:52;;;;;;;17.73;15.20;;;;;;;;;;5049807;28;20393;-76
2021/09/17 11:11:24;;;;;;;16.60;14.60;;;;;;;;;;5049533;28;20442;-77
2021/09/17 11:13:50;;;;;;;20.67;15.17;;;;;;;;;;5049739;28;20434;-76
2021/09/17 11:16:17;;;;;;;16.80;14.93;;;;;;;;;;5049808;28;20845;-76
2021/09/17 11:19:00;;;;;;;19.20;15.03;;;;;;;;;;5049494;28;20506;-77
2021/09/17 11:21:26;;;;;;;17.77;15.97;;;;;;;;;;5049295;28;20407;-76
2021/09/17 11:23:52;;;;;;;19.30;15.80;;;;;;;;;;5049779;28;20817;-76
2021/09/17 11:26:19;;;;;;;15.73;13.37;;;;;;;;;;5049722;28;20448;-77
2021/09/17 11:28:57;;;;;;;17.53;14.00;;;;;;;;;;5049328;28;20391;-77
2021/09/17 11:31:25;;;;;;;16.63;14.03;;;;;;;;;;5049251;28;20462;-76
2021/09/17 11:34:05;;;;;;;15.33;13.73;;;;;;;;;;5049284;28;20467;-77
2021/09/17 11:36:34;;;;;;;16.10;14.03;;;;;;;;;;5049296;28;20375;-76
2021/09/17 11:39:13;;;;;;;17.20;13.60;;;;;;;;;;5049358;28;20462;-77
2021/09/17 11:41:39;;;;;;;16.70;14.93;;;;;;;;;;5049020;28;20523;-76
2021/09/17 11:44:05;;;;;;;16.00;13.23;;;;;;;;;;5049497;28;20413;-77
2021/09/17 11:46:31;;;;;;;18.90;16.90;;;;;;;;;;5035408;28;20391;-77
2021/09/17 11:48:57;;;;;;;19.10;17.07;;;;;;;;;;5035028;28;20774;-76
2021/09/17 11:51:23;;;;;;;19.70;16.17;;;;;;;;;;5034448;28;20464;-76
2021/09/17 11:53:49;;;;;;;17.70;15.90;;;;;;;;;;5035946;28;20497;-76
2021/09/17 11:56:15;;;;;;;19.90;16.27;;;;;;;;;;5035955;28;20763;-77
2021/09/17 11:58:45;;;;;;;17.97;15.00;;;;;;;;;;5035886;28;20386;-76
2021/09/17 12:01:25;;;;;;;17.00;15.00;;;;;;;;;;5035151;28;20424;-76
2021/09/17 12:03:52;;;;;;;15.80;14.30;;;;;;;;;;5035949;28;20474;-76
2021/09/17 12:06:18;;;;;;;15.73;14.13;;;;;;;;;;5034448;28;20417;-77
2021/09/17 12:08:44;;;;;;;17.83;16.03;;;;;;;;;;5035524;28;20405;-76
2021/09/17 12:11:10;;;;;;;18.30;16.40;;;;;;;;;;5034955;28;20933;-76
2021/09/17 12:13:36;;;;;;;17.07;14.67;;;;;;;;;;5035388;28;20829;-77
2021/09/17 12:16:09;;;;;;;19.60;15.37;;;;;;;;;;5035462;28;20405;-76
2021/09/17 12:18:35;;;;;;;17.20;15.60;;;;;;;;;;5035375;28;20401;-77
2021/09/17 12:21:04;;;;;;;21.37;15.47;;;;;;;;;;5034800;28;20490;-76
2021/09/17 12:23:33;;;;;;;18.63;15.50;;;;;;;;;;5035442;28;20396;-77
2021/09/17 12:26:08;;;;;;;15.23;13.73;;;;;;;;;;5046488;28;20409;-76
2021/09/17 12:28:34;;;;;;;16.50;13.87;;;;;;;;;;5053651;28;20858;-76
2021/09/17 12:31:00;;;;;;;18.10;15.00;;;;;;;;;;5054569;28;20422;-77
2021/09/17 12:33:32;;;;;;;17.63;15.30;;;;;;;;;;5055003;28;20450;-77
2021/09/17 12:36:07;;;;;;;17.40;14.73;;;;;;;;;;5055338;28;20367;-76
2021/09/17 12:38:33;;;;;;;16.80;15.17;;;;;;;;;;5054816;28;20471;-77
2021/09/17 12:41:01;;;;;;;19.57;17.40;;;;;;;;;;5054674;28;20387;-77
2021/09/17 12:43:33;;;;;;;19.13;17.07;;;;;;;;;;5054896;28;20402;-76
2021/09/17 12:46:00;;;;;;;17.90;15.97;;;;;;;;;;5054760;28;20391;-76
2021/09/17 12:48:28;;;;;;;15.70;14.23;;;;;;;;;;5054690;28;20414;-78
2021/09/17 12:50:54;;;;;;;16.33;14.60;;;;;;;;;;5054317;28;20807;-77
2021/09/17 12:53:22;;;;;;;18.53;16.70;;;;;;;;;;5054456;28;20460;-77
2021/09/17 12:55:49;;;;;;;20.37;13.83;;;;;;;;;;5054555;28;20428;-76
2021/09/17 12:58:23;;;;;;;19.20;14.30;;;;;;;;;;5054079;28;20491;-77
2021/09/17 13:00:51;;;;;;;18.00;14.60;;;;;;;;;;5054177;28;20913;-77
2021/09/17 13:03:18;;;;;;;18.43;13.83;;;;;;;;;;5054544;28;20728;-77
2021/09/17 13:05:48;;;;;;;17.50;14.90;;;;;;;;;;5054450;28;20776;-77
2021/09/17 13:08:14;;;;;;;13.77;11.50;;;;;;;;;;5054434;28;20433;-76
2021/09/17 13:10:40;;;;;;;14.53;13.03;;;;;;;;;;5053982;28;20424;-76
2021/09/17 13:13:06;;;;;;;14.33;12.87;;;;;;;;;;5054128;28;20468;-76
2021/09/17 13:15:32;;;;;;;15.60;13.63;;;;;;;;;;5054165;28;20412;-77
2021/09/17 13:17:59;;;;;;;14.53;12.60;;;;;;;;;;5054274;28;20414;-77
2021/09/17 13:20:25;;;;;;;15.03;13.00;;;;;;;;;;5054084;28;20454;-76
2021/09/17 13:22:52;;;;;;;15.77;12.93;;;;;;;;;;5053566;28;20936;-76
2021/09/17 13:25:18;;;;;;;13.43;12.13;;;;;;;;;;5053889;28;20481;-77
2021/09/17 13:27:49;;;;;;;15.63;14.03;;;;;;;;;;5053651;28;20408;-77
2021/09/17 13:30:15;;;;;;;13.43;11.73;;;;;;;;;;5053821;28;20928;-77
2021/09/17 13:32:41;;;;;;;12.97;11.67;;;;;;;;;;5053501;28;20424;-76
2021/09/17 13:35:08;;;;;;;13.33;11.93;;;;;;;;;;5053892;28;20469;-76
2021/09/17 13:37:35;;;;;;;13.73;12.37;;;;;;;;;;5053748;28;20442;-77
2021/09/17 13:40:04;;;;;;;13.87;12.47;;;;;;;;;;5053788;28;20416;-77
2021/09/17 13:42:30;;;;;;;14.40;12.67;;;;;;;;;;5052937;28;20773;-77
2021/09/17 13:44:56;;;;;;;17.00;12.17;;;;;;;;;;5053589;28;20408;-76
2021/09/17 13:47:22;;;;;;;15.70;14.10;;;;;;;;;;5053899;28;20408;-77
2021/09/17 13:49:48;;;;;;;15.07;12.43;;;;;;;;;;5053721;28;20469;-77
2021/09/17 13:52:14;;;;;;;14.00;12.50;;;;;;;;;;5053186;28;20406;-77
2021/09/17 13:54:40;;;;;;;16.80;13.33;;;;;;;;;;5053545;28;20502;-77
2021/09/17 13:57:06;;;;;;;12.93;11.73;;;;;;;;;;5053536;28;20408;-76
2021/09/17 13:59:33;;;;;;;14.37;12.43;;;;;;;;;;5053573;28;20458;-76
2021/09/17 14:01:59;;;;;;;14.30;11.23;;;;;;;;;;5052919;28;20801;-75
2021/09/17 14:04:25;;;;;;;12.67;10.70;;;;;;;;;;5053504;28;20813;-76
2021/09/17 14:06:51;;;;;;;12.83;11.63;;;;;;;;;;5053353;28;20948;-75
2021/09/17 14:09:17;;;;;;;13.00;11.70;;;;;;;;;;5052991;28;20416;-75
2021/09/17 14:11:44;;;;;;;15.47;13.27;;;;;;;;;;5052929;28;20444;-76
2021/09/17 14:14:10;;;;;;;14.63;13.17;;;;;;;;;;5053165;28;20459;-75
2021/09/17 14:16:36;;;;;;;15.73;13.30;;;;;;;;;;5053424;28;20957;-77
2021/09/17 14:19:02;;;;;;;12.30;11.10;;;;;;;;;;5053226;28;20418;-75
2021/09/17 14:21:28;;;;;;;13.33;11.93;;;;;;;;;;5052831;28;20419;-76